Ellet, Ohio
Current Conditions -  °F | °C
As of 4:54 PM on Monday 20 Oct 2014 (Local Time) from KAKR Reporting Station
Overcast Overcast  
Wind Chill: 57°   Ceiling: 4400
Heat Index: 57°   Visibility: 10mi
Dew Point: 45°   Wind: 12mph
Humidity: 64%   Direction: 190°S
Pressure: 29.83"   Gusts: NA
Location:  41.0159°N, 81.4403°W
Report Text: KAKR 202054Z AUTO 19010KT 10SM BKN044 OVC055 14/07 A2983 RMK AO2 SLP102 60001 T01390072 56012
Loading
Personal Weather Stations






























Interactive Weather Map
Tropical Storm Tracking
New forecast layout! Learn more

10-Day Weather Forecast

Advertisements
Track Severe Weather on mobile